Paragould, AR

4:14 AM CST on February 09, 2016 (GMT -0600)
Near AMMC Hospital | | Change Station
CLOSE
Current Station
Personal Weather Station
Location: Paragould, AR
Elevation: 338 ft
Nearby Weather Stations

Elev 338 ft 36.05 °N, 90.50 °W | Updated 18 seconds ago

Overcast
Overcast
31.8 °F
Feels Like 32 °F
N
1.6
Wind Variable Wind from South
Gusts 3.8 mph

Today
High -- | Low -- °F
--% Chance of Precip.
Yesterday
High -- | Low -- °F
Precip. -- in
Pressure 29.95 in
Visibility 10.0 miles
Clouds Overcast 4800 ft
Windchill 32 °F
Dew Point 14 °F
Humidity 48%
Rainfall 0.00 in
Snow Depth Not available.
6:56 AM 5:36 PM
New Moon, 1% visible
METAR KJBR 090953Z AUTO 29008KT 10SM OVC048 M01/M08 A2995 RMK AO2 SLP142 T10061078
Pressure 29.95 in
Visibility 10.0 miles
Clouds Overcast 4800 ft
Windchill 32 °F
Dew Point 14 °F
Humidity 48%
Rainfall 0.00 in
Snow Depth Not available.
6:56 AM 5:36 PM
New Moon, 1% visible
METAR KJBR 090953Z AUTO 29008KT 10SM OVC048 M01/M08 A2995 RMK AO2 SLP142 T10061078

10-Day Weather Forecast

Almanac

Astronomy

Feb. 09, 2016 Rise Set
Actual Time
Civil Twilight
Nautical Twilight
Astronomical Twilight
Moon
Length of Visible Light
Length of Day
Tomorrow will be .
, % of the Moon is Illuminated

Today's Extremes

State Highs State Lows

Community

WunderPhotos

Upload Photos

1,891,565 photos uploaded!

WunderBlog® & News

Nearby

Air Quality

  Air Quality AQ Index Pollutant
Not available.

Snow Depth

Station Depth Elevation

Earthquake Activity

City Distance Mag. Time & Date
Minimum magnitude displayed is 2.5.

Coastal Water Temperatures

Place Temperature

Stations

Nearby Weather Stations

Station Location Temp. Windchill Dew Point Humidity Wind Precip. Elev Updated Type
                   

Watches & Warnings

There are currently no watches in effect.